Time;durP1;ratioP1;P1;durP2;ratioP2;P2;SDS_P1;SDS_P2;PMS_P1;PMS_P2;Temp;Humidity;BMP_temperature;BMP_pressure;BME280_temperature;BME280_humidity;BME280_pressure;Samples;Min_cycle;Max_cycle;Signal;HPM_P1;HPM_P2
2022/06/09 00:01:18;;;;;;;1.63;1.52;;;18.30;99.90;;;;;;7372311;19;20329;-78
2022/06/09 00:04:06;;;;;;;1.50;1.40;;;18.30;99.90;;;;;;7378620;19;20350;-79
2022/06/09 00:06:38;;;;;;;1.50;1.40;;;18.30;99.90;;;;;;7375346;19;20916;-79
2022/06/09 00:09:04;;;;;;;1.60;1.50;;;18.20;99.90;;;;;;7379254;19;21120;-79
2022/06/09 00:11:30;;;;;;;1.42;1.33;;;18.10;99.90;;;;;;7373528;19;20330;-78
2022/06/09 00:13:56;;;;;;;1.50;1.40;;;18.00;99.90;;;;;;7357609;19;20316;-79
2022/06/09 00:16:21;;;;;;;1.50;1.40;;;17.90;99.90;;;;;;7380303;19;20333;-78
2022/06/09 00:18:47;;;;;;;1.60;1.50;;;17.90;99.90;;;;;;7377802;19;20340;-78
2022/06/09 00:21:13;;;;;;;1.88;1.70;;;17.80;99.90;;;;;;7373515;19;20398;-79
2022/06/09 00:23:38;;;;;;;1.70;1.60;;;17.80;99.90;;;;;;7376149;19;20352;-79
2022/06/09 00:26:04;;;;;;;1.90;1.80;;;17.80;99.90;;;;;;7376772;19;20642;-78
2022/06/09 00:28:30;;;;;;;1.63;1.53;;;17.70;99.90;;;;;;7376419;19;20341;-79
2022/06/09 00:30:56;;;;;;;1.50;1.40;;;17.70;99.90;;;;;;7372435;19;20354;-78
2022/06/09 00:33:21;;;;;;;1.70;1.60;;;17.50;99.90;;;;;;7377463;19;20308;-79
2022/06/09 00:35:47;;;;;;;1.55;1.45;;;17.50;99.90;;;;;;7371437;19;20348;-78
2022/06/09 00:38:13;;;;;;;1.63;1.52;;;17.30;99.90;;;;;;7376725;19;20337;-78
2022/06/09 00:40:38;;;;;;;1.60;1.50;;;17.30;99.90;;;;;;7375244;19;20354;-78
2022/06/09 00:43:05;;;;;;;3.42;1.60;;;17.20;99.90;;;;;;7376819;19;20366;-79
2022/06/09 00:45:32;;;;;;;1.60;1.50;;;17.20;99.90;;;;;;7383912;19;20360;-78
2022/06/09 00:48:19;;;;;;;2.10;2.00;;;17.20;99.90;;;;;;7380036;19;20446;-78
2022/06/09 00:50:45;;;;;;;2.40;1.70;;;17.10;99.90;;;;;;7272898;19;2004538;-79
2022/06/09 00:53:14;;;;;;;1.43;1.40;;;17.10;99.90;;;;;;7376570;19;20345;-79
2022/06/09 00:55:40;;;;;;;1.90;1.60;;;17.00;99.90;;;;;;7373902;19;20312;-79
2022/06/09 00:58:08;;;;;;;1.80;1.70;;;17.00;99.90;;;;;;7377438;19;20332;-79
2022/06/09 01:00:45;;;;;;;1.67;1.58;;;17.00;99.90;;;;;;7374150;19;20313;-79
2022/06/09 01:03:10;;;;;;;2.00;1.60;;;16.80;99.90;;;;;;7374497;19;20373;-79
2022/06/09 01:05:37;;;;;;;1.50;1.50;;;16.80;99.90;;;;;;7372732;19;20333;-79
2022/06/09 01:08:03;;;;;;;1.80;1.70;;;16.70;99.90;;;;;;7379173;19;20341;-80
2022/06/09 01:10:30;;;;;;;2.40;2.20;;;16.80;99.90;;;;;;7376260;19;20340;-79
2022/06/09 01:12:56;;;;;;;1.70;1.60;;;16.70;99.90;;;;;;7373979;19;20868;-79
2022/06/09 01:15:22;;;;;;;1.63;1.53;;;16.70;99.90;;;;;;7374913;19;20301;-79
2022/06/09 01:17:51;;;;;;;1.50;1.40;;;16.60;99.90;;;;;;7370982;19;20340;-79
2022/06/09 01:20:36;;;;;;;1.60;1.50;;;16.60;99.90;;;;;;7375286;19;20333;-79
2022/06/09 01:23:29;;;;;;;1.85;1.75;;;16.60;99.90;;;;;;7373074;19;20357;-79
2022/06/09 01:26:07;;;;;;;1.80;1.70;;;16.60;99.90;;;;;;7270564;19;2004424;-79
2022/06/09 01:29:07;;;;;;;1.80;1.70;;;16.50;99.90;;;;;;7375424;19;20948;-78
2022/06/09 01:31:52;;;;;;;1.80;1.70;;;16.40;99.90;;;;;;7269417;19;2004290;-79
2022/06/09 01:34:23;;;;;;;2.00;1.80;;;16.40;99.90;;;;;;7381653;19;20315;-78
2022/06/09 01:37:01;;;;;;;1.93;1.83;;;16.30;99.90;;;;;;7377584;19;20364;-79
2022/06/09 01:39:46;;;;;;;1.70;1.60;;;16.30;99.90;;;;;;7381522;19;20352;-78
2022/06/09 01:42:26;;;;;;;2.00;1.90;;;16.20;99.90;;;;;;7381249;19;20305;-79
2022/06/09 01:44:53;;;;;;;1.90;1.80;;;16.10;99.90;;;;;;7277888;19;2004681;-78
2022/06/09 01:47:20;;;;;;;1.55;1.45;;;16.10;99.90;;;;;;7377329;19;20335;-78
2022/06/09 01:49:47;;;;;;;1.60;1.50;;;16.10;99.90;;;;;;7379452;19;20340;-78
2022/06/09 01:52:12;;;;;;;1.93;1.73;;;16.10;99.90;;;;;;7378368;19;20337;-79
2022/06/09 01:54:38;;;;;;;2.38;2.17;;;16.00;99.90;;;;;;7381044;19;20672;-78
2022/06/09 01:57:09;;;;;;;2.97;2.10;;;15.90;99.90;;;;;;7379053;19;21073;-78
2022/06/09 01:59:38;;;;;;;2.72;1.90;;;15.70;99.90;;;;;;7382020;19;20316;-79
2022/06/09 02:02:09;;;;;;;2.47;2.28;;;15.70;99.90;;;;;;7381162;19;20452;-79
2022/06/09 02:04:38;;;;;;;2.50;2.33;;;15.60;99.90;;;;;;7382794;19;20327;-79
2022/06/09 02:07:04;;;;;;;2.17;2.00;;;15.40;99.90;;;;;;7379093;19;20352;-79
2022/06/09 02:09:31;;;;;;;2.20;2.10;;;15.20;99.90;;;;;;7381776;19;20301;-79
2022/06/09 02:11:57;;;;;;;2.10;2.00;;;15.20;99.90;;;;;;7379340;19;20347;-78
2022/06/09 02:14:25;;;;;;;2.30;2.10;;;15.20;99.90;;;;;;7381211;19;20321;-79
2022/06/09 02:16:51;;;;;;;1.92;1.75;;;15.20;99.90;;;;;;7378974;19;20387;-78
2022/06/09 02:19:17;;;;;;;2.03;1.93;;;15.30;99.90;;;;;;7380756;19;20367;-78
2022/06/09 02:21:42;;;;;;;1.70;1.60;;;15.30;99.90;;;;;;7386367;19;20336;-77
2022/06/09 02:24:08;;;;;;;2.45;2.22;;;15.30;99.90;;;;;;7382948;19;20313;-78
2022/06/09 02:26:34;;;;;;;2.65;2.10;;;15.30;99.90;;;;;;7378170;19;20321;-77
2022/06/09 02:29:00;;;;;;;2.10;2.00;;;15.40;99.90;;;;;;7379521;19;20313;-77
2022/06/09 02:31:26;;;;;;;2.00;1.90;;;15.40;99.90;;;;;;7375709;19;20739;-77
2022/06/09 02:33:51;;;;;;;2.30;2.10;;;15.40;99.90;;;;;;7380256;19;20360;-77
2022/06/09 02:36:17;;;;;;;1.67;1.58;;;15.50;99.90;;;;;;7378554;19;20312;-77
2022/06/09 02:38:43;;;;;;;1.77;1.67;;;15.50;99.90;;;;;;7377277;19;20424;-76
2022/06/09 02:41:09;;;;;;;2.10;1.90;;;15.50;99.90;;;;;;7376268;19;20347;-76
2022/06/09 02:43:34;;;;;;;2.00;1.90;;;15.40;99.90;;;;;;7378471;19;20305;-77
2022/06/09 02:46:01;;;;;;;2.40;2.20;;;15.40;99.90;;;;;;7376128;19;20861;-77
2022/06/09 02:48:27;;;;;;;2.00;1.80;;;15.40;99.90;;;;;;7377626;19;20309;-77
2022/06/09 02:50:53;;;;;;;2.10;2.00;;;15.40;99.90;;;;;;7377205;19;20355;-77
2022/06/09 02:53:19;;;;;;;2.10;2.00;;;15.30;99.90;;;;;;7379886;19;20440;-77
2022/06/09 02:55:44;;;;;;;2.00;1.90;;;15.30;99.90;;;;;;7376877;19;20353;-77
2022/06/09 02:58:10;;;;;;;1.60;1.50;;;15.20;99.90;;;;;;7378961;19;20350;-77
2022/06/09 03:00:36;;;;;;;1.88;1.45;;;15.20;99.90;;;;;;7374110;19;21041;-77
2022/06/09 03:03:04;;;;;;;2.03;1.90;;;15.30;99.90;;;;;;7378945;19;21111;-77
2022/06/09 03:05:30;;;;;;;2.00;1.90;;;15.20;99.90;;;;;;7376354;19;20341;-77
2022/06/09 03:07:56;;;;;;;2.95;2.40;;;15.10;99.90;;;;;;7377572;19;20424;-77
2022/06/09 03:10:21;;;;;;;2.17;2.07;;;15.00;99.90;;;;;;7378550;19;20420;-77
2022/06/09 03:12:47;;;;;;;2.13;2.00;;;14.90;99.90;;;;;;7378399;19;20348;-77
2022/06/09 03:15:14;;;;;;;2.13;2.00;;;14.90;99.90;;;;;;7377493;19;20882;-76
2022/06/09 03:17:39;;;;;;;2.20;2.00;;;14.90;99.90;;;;;;7375691;19;20413;-77
2022/06/09 03:20:06;;;;;;;1.80;1.70;;;14.90;99.90;;;;;;7377498;19;20340;-77
2022/06/09 03:22:32;;;;;;;3.08;2.30;;;14.90;99.90;;;;;;7374563;19;20316;-77
2022/06/09 03:24:59;;;;;;;2.33;2.17;;;15.00;99.90;;;;;;7377703;19;20347;-77
2022/06/09 03:27:25;;;;;;;2.20;2.10;;;15.00;99.90;;;;;;7370238;19;20313;-77
2022/06/09 03:29:50;;;;;;;2.30;2.10;;;15.00;99.90;;;;;;7378142;19;20329;-77
2022/06/09 03:32:16;;;;;;;2.25;2.08;;;14.90;99.90;;;;;;7373607;19;20424;-77
2022/06/09 03:34:42;;;;;;;2.60;2.40;;;14.90;99.90;;;;;;7376642;19;20318;-77
2022/06/09 03:37:07;;;;;;;2.28;2.08;;;15.00;99.90;;;;;;7376083;19;20317;-77
2022/06/09 03:39:33;;;;;;;2.00;1.90;;;15.10;99.90;;;;;;7378593;19;20312;-76
2022/06/09 03:41:58;;;;;;;2.10;2.00;;;15.20;99.90;;;;;;7365054;19;20333;-76
2022/06/09 03:44:24;;;;;;;2.30;2.20;;;15.30;99.90;;;;;;7376266;19;20337;-77
2022/06/09 03:46:50;;;;;;;1.80;1.70;;;15.30;99.90;;;;;;7374634;19;20361;-77
2022/06/09 03:49:15;;;;;;;2.27;2.07;;;15.40;99.90;;;;;;7381793;19;20922;-77
2022/06/09 03:51:41;;;;;;;1.77;1.67;;;15.50;99.90;;;;;;7375977;19;20316;-77
2022/06/09 03:54:07;;;;;;;2.10;2.00;;;15.60;99.90;;;;;;7377843;19;20328;-77
2022/06/09 03:56:33;;;;;;;2.10;2.00;;;15.70;99.90;;;;;;7373432;19;20344;-77
2022/06/09 03:58:59;;;;;;;1.90;1.80;;;15.70;99.90;;;;;;7385607;19;20404;-77
2022/06/09 04:01:25;;;;;;;1.90;1.80;;;15.80;99.90;;;;;;7376807;19;20305;-77
2022/06/09 04:03:50;;;;;;;2.40;2.30;;;15.90;99.90;;;;;;7378748;19;21222;-77
2022/06/09 04:06:21;;;;;;;2.67;2.47;;;15.90;99.90;;;;;;7378888;19;20344;-77
2022/06/09 04:08:48;;;;;;;2.85;2.65;;;15.90;99.90;;;;;;7377154;19;20329;-77
2022/06/09 04:11:15;;;;;;;2.40;2.20;;;16.00;99.90;;;;;;7375768;19;20328;-77
2022/06/09 04:13:41;;;;;;;2.15;2.05;;;15.90;99.90;;;;;;7375984;19;20360;-77
2022/06/09 04:16:13;;;;;;;3.10;2.30;;;15.90;99.90;;;;;;7374964;19;20340;-77
2022/06/09 04:18:39;;;;;;;2.70;2.50;;;15.90;99.90;;;;;;7377695;19;20312;-76
2022/06/09 04:21:05;;;;;;;3.13;2.60;;;16.00;99.90;;;;;;7373653;19;20344;-77
2022/06/09 04:23:30;;;;;;;2.87;2.40;;;16.00;99.90;;;;;;7378062;19;20312;-76
2022/06/09 04:25:56;;;;;;;2.90;2.60;;;16.10;99.90;;;;;;7373015;19;20679;-76
2022/06/09 04:28:22;;;;;;;2.75;2.55;;;16.20;99.90;;;;;;7375969;19;20348;-77
2022/06/09 04:30:48;;;;;;;2.67;2.47;;;16.30;99.90;;;;;;7372466;19;20333;-77
2022/06/09 04:33:13;;;;;;;2.75;2.55;;;16.40;99.90;;;;;;7373729;19;20357;-77
2022/06/09 04:35:39;;;;;;;2.70;2.50;;;16.40;99.90;;;;;;7370681;19;20411;-77
2022/06/09 04:38:05;;;;;;;2.60;2.40;;;16.50;99.90;;;;;;7372438;19;20336;-77
2022/06/09 04:40:35;;;;;;;2.25;2.10;;;16.60;99.90;;;;;;7372026;19;20329;-77
2022/06/09 04:43:01;;;;;;;3.50;2.28;;;16.80;99.90;;;;;;7370413;19;20420;-77
2022/06/09 04:45:26;;;;;;;2.40;2.20;;;17.00;99.90;;;;;;7374162;19;20440;-76
2022/06/09 04:47:52;;;;;;;2.50;2.30;;;17.20;99.90;;;;;;7373348;19;20344;-79
2022/06/09 04:50:18;;;;;;;2.63;2.42;;;17.40;99.90;;;;;;7378366;19;20309;-79
2022/06/09 04:52:45;;;;;;;2.60;2.40;;;17.50;99.90;;;;;;7376687;19;20343;-78
2022/06/09 04:55:10;;;;;;;2.42;2.28;;;17.70;99.90;;;;;;7375012;19;20337;-78
2022/06/09 04:57:36;;;;;;;2.72;2.53;;;17.80;99.90;;;;;;7375665;19;20347;-78
2022/06/09 05:00:03;;;;;;;2.37;2.20;;;18.00;99.90;;;;;;7376032;19;20689;-78
2022/06/09 05:02:29;;;;;;;3.00;2.47;;;18.20;99.90;;;;;;7368785;19;20349;-79
2022/06/09 05:04:55;;;;;;;2.90;2.47;;;18.30;99.90;;;;;;7375735;19;20857;-78
2022/06/09 05:07:25;;;;;;;2.60;2.40;;;18.30;99.90;;;;;;7372105;19;24196;-78
2022/06/09 05:09:50;;;;;;;2.30;2.10;;;18.40;99.90;;;;;;7381354;19;20358;-78
2022/06/09 05:12:16;;;;;;;2.70;2.10;;;18.50;99.90;;;;;;7379331;19;20309;-77
2022/06/09 05:14:42;;;;;;;2.40;2.30;;;18.60;99.90;;;;;;7379841;19;20344;-78
2022/06/09 05:17:07;;;;;;;2.27;2.10;;;18.50;99.90;;;;;;7378944;19;20441;-78
2022/06/09 05:19:33;;;;;;;2.92;2.15;;;18.60;99.90;;;;;;7383658;19;20318;-77
2022/06/09 05:21:58;;;;;;;2.42;2.22;;;18.60;99.90;;;;;;7382060;19;21253;-78
2022/06/09 05:24:24;;;;;;;2.87;2.07;;;18.60;99.90;;;;;;7381841;19;20316;-78
2022/06/09 05:26:50;;;;;;;1.80;1.70;;;18.60;99.90;;;;;;7382383;19;20345;-78
2022/06/09 05:29:16;;;;;;;2.08;1.98;;;18.80;99.90;;;;;;7383644;19;21151;-78
2022/06/09 05:31:43;;;;;;;2.38;2.17;;;19.00;99.90;;;;;;7379187;19;20862;-78
2022/06/09 05:34:09;;;;;;;1.90;1.80;;;19.10;99.90;;;;;;7383775;19;20893;-78
2022/06/09 05:36:35;;;;;;;2.92;1.92;;;19.30;99.90;;;;;;7386198;19;20368;-77
2022/06/09 05:47:13;;;;;;;2.40;2.20;;;19.70;99.90;;;;;;7379309;19;20424;-78
2022/06/09 05:49:39;;;;;;;2.50;2.30;;;19.80;99.90;;;;;;7381373;19;20376;-78
2022/06/09 05:52:05;;;;;;;2.43;2.23;;;19.90;99.90;;;;;;7379946;19;22256;-78
2022/06/09 05:54:30;;;;;;;4.65;2.00;;;19.90;99.90;;;;;;7380018;19;20334;-78
2022/06/09 05:56:57;;;;;;;2.37;2.17;;;19.90;99.90;;;;;;7378481;19;20316;-78
2022/06/09 05:59:22;;;;;;;2.00;1.90;;;19.90;99.90;;;;;;7380234;19;20996;-79
2022/06/09 06:01:48;;;;;;;2.15;1.80;;;20.00;99.90;;;;;;7376886;19;20328;-78
2022/06/09 06:04:14;;;;;;;2.30;2.10;;;20.00;99.90;;;;;;7381920;19;20305;-78
2022/06/09 06:06:41;;;;;;;1.80;1.70;;;19.80;99.90;;;;;;7380612;19;20324;-78
2022/06/09 06:09:10;;;;;;;1.85;1.75;;;19.90;99.90;;;;;;7379789;19;20329;-78
2022/06/09 06:11:36;;;;;;;1.90;1.80;;;20.10;99.90;;;;;;7380079;19;20333;-79
2022/06/09 06:14:02;;;;;;;2.20;1.80;;;20.40;99.90;;;;;;7380622;19;20881;-78
2022/06/09 06:16:27;;;;;;;1.95;1.85;;;20.40;99.90;;;;;;7377878;19;20327;-78
2022/06/09 06:18:54;;;;;;;1.83;1.73;;;20.30;99.90;;;;;;7377242;19;20369;-78
2022/06/09 06:21:19;;;;;;;1.58;1.48;;;20.20;99.90;;;;;;7377348;19;20364;-78
2022/06/09 06:23:45;;;;;;;1.33;1.30;;;20.40;99.90;;;;;;7382485;19;20702;-77
2022/06/09 06:26:11;;;;;;;1.60;1.50;;;20.60;99.90;;;;;;7377901;19;20309;-79
2022/06/09 06:28:37;;;;;;;1.35;1.25;;;20.70;99.90;;;;;;7381046;19;20309;-78
2022/06/09 06:31:02;;;;;;;1.30;1.20;;;20.60;99.90;;;;;;7378845;19;20319;-78
2022/06/09 06:33:28;;;;;;;1.57;1.40;;;20.70;99.90;;;;;;7381592;19;20881;-78
2022/06/09 06:35:53;;;;;;;1.63;1.33;;;20.70;99.90;;;;;;7380421;19;20369;-78
2022/06/09 06:38:19;;;;;;;1.23;1.15;;;20.70;99.90;;;;;;7381648;19;20335;-79
2022/06/09 06:40:45;;;;;;;1.43;1.20;;;20.90;99.90;;;;;;7375079;19;20348;-79
2022/06/09 06:43:11;;;;;;;1.83;1.30;;;21.10;99.90;;;;;;7379760;19;20416;-78
2022/06/09 06:45:36;;;;;;;2.10;1.40;;;21.20;99.90;;;;;;7378820;19;22427;-79
2022/06/09 06:48:02;;;;;;;1.20;1.10;;;21.30;99.90;;;;;;7378818;19;20324;-78
2022/06/09 06:50:28;;;;;;;1.90;1.30;;;21.40;99.90;;;;;;7378711;19;20324;-79
2022/06/09 06:52:53;;;;;;;1.40;1.20;;;21.60;99.90;;;;;;7376739;19;20444;-79
2022/06/09 06:55:20;;;;;;;1.40;1.30;;;21.50;99.90;;;;;;7378764;19;20412;-79
2022/06/09 06:57:45;;;;;;;1.50;1.40;;;21.60;99.90;;;;;;7379227;19;20341;-79
2022/06/09 07:00:13;;;;;;;1.48;1.38;;;21.60;99.90;;;;;;7379940;19;20323;-79
2022/06/09 07:02:39;;;;;;;1.50;1.40;;;21.40;99.90;;;;;;7380164;19;20316;-78
2022/06/09 07:05:05;;;;;;;1.35;1.25;;;21.30;99.90;;;;;;7381038;19;20921;-79
2022/06/09 07:07:31;;;;;;;1.27;1.20;;;21.10;99.90;;;;;;7380581;19;20304;-79
2022/06/09 07:09:56;;;;;;;2.38;1.40;;;21.10;99.90;;;;;;7381487;19;21040;-79
2022/06/09 07:12:22;;;;;;;2.20;2.00;;;20.90;99.90;;;;;;7387054;19;20328;-79
2022/06/09 07:14:48;;;;;;;1.67;1.57;;;20.80;99.90;;;;;;7385216;19;20336;-79
2022/06/09 07:17:13;;;;;;;1.60;1.50;;;21.10;99.90;;;;;;7380721;19;20644;-78
2022/06/09 07:19:39;;;;;;;1.52;1.42;;;21.50;99.90;;;;;;7381537;19;20316;-79
2022/06/09 07:22:05;;;;;;;1.70;1.60;;;21.70;99.90;;;;;;7379931;19;21175;-78
2022/06/09 07:24:30;;;;;;;1.63;1.52;;;21.80;99.90;;;;;;7380645;19;20312;-79
2022/06/09 07:26:56;;;;;;;2.20;1.63;;;21.90;99.90;;;;;;7380133;19;20329;-79
2022/06/09 07:29:22;;;;;;;1.63;1.53;;;21.90;99.90;;;;;;7380497;19;20321;-79
2022/06/09 07:31:47;;;;;;;1.70;1.60;;;22.20;99.90;;;;;;7377051;19;21162;-79
2022/06/09 07:34:13;;;;;;;1.73;1.60;;;22.20;99.90;;;;;;7380160;19;20412;-79
2022/06/09 07:36:39;;;;;;;1.63;1.53;;;22.40;99.90;;;;;;7379458;19;20304;-79
2022/06/09 07:39:05;;;;;;;1.50;1.40;;;22.50;99.90;;;;;;7382026;19;20362;-79
2022/06/09 07:41:30;;;;;;;2.35;1.40;;;22.30;99.90;;;;;;7377395;19;20373;-78
2022/06/09 07:43:56;;;;;;;1.57;1.47;;;22.70;99.90;;;;;;7380600;19;20345;-77
2022/06/09 07:46:22;;;;;;;1.33;1.30;;;22.80;99.90;;;;;;7378019;19;20325;-79
2022/06/09 07:48:47;;;;;;;1.63;1.53;;;23.10;99.90;;;;;;7380118;19;20353;-78
2022/06/09 07:51:13;;;;;;;1.97;1.77;;;23.20;99.90;;;;;;7377844;19;20321;-79
2022/06/09 07:53:39;;;;;;;2.90;1.60;;;23.50;99.90;;;;;;7379584;19;20309;-78
2022/06/09 07:56:05;;;;;;;2.00;1.60;;;23.20;99.90;;;;;;7379292;19;20297;-78
2022/06/09 07:58:30;;;;;;;2.33;1.70;;;23.60;99.90;;;;;;7382132;19;20748;-78
2022/06/09 08:00:56;;;;;;;2.23;1.70;;;23.60;99.90;;;;;;7378960;19;20359;-78
2022/06/09 08:03:23;;;;;;;2.30;1.70;;;23.70;99.90;;;;;;7380484;19;20419;-79
2022/06/09 08:05:49;;;;;;;2.03;1.83;;;23.80;99.90;;;;;;7378566;19;20715;-78
2022/06/09 08:08:14;;;;;;;2.50;1.57;;;24.00;99.90;;;;;;7378397;19;20327;-79
2022/06/09 08:10:41;;;;;;;1.60;1.50;;;24.30;99.90;;;;;;7378549;19;20350;-79
2022/06/09 08:13:07;;;;;;;2.50;1.60;;;24.50;99.90;;;;;;7377278;19;20658;-79
2022/06/09 08:15:32;;;;;;;1.70;1.55;;;24.60;99.90;;;;;;7378329;19;20308;-78
2022/06/09 08:17:58;;;;;;;1.57;1.47;;;24.50;99.90;;;;;;7379633;19;20923;-79
2022/06/09 08:20:27;;;;;;;1.70;1.60;;;24.00;99.90;;;;;;7379068;19;20293;-79
2022/06/09 08:22:58;;;;;;;1.70;1.60;;;23.70;99.90;;;;;;7382355;19;20431;-79
2022/06/09 08:25:24;;;;;;;1.95;1.67;;;23.60;99.90;;;;;;7378537;19;20317;-79
2022/06/09 08:27:49;;;;;;;2.30;1.30;;;23.40;99.90;;;;;;7378419;19;20333;-79
2022/06/09 08:30:16;;;;;;;1.40;1.30;;;23.60;99.90;;;;;;7376967;19;20307;-79
2022/06/09 08:32:42;;;;;;;1.10;1.10;;;23.80;99.90;;;;;;7378858;19;20333;-79
2022/06/09 08:35:10;;;;;;;1.17;1.17;;;23.70;99.90;;;;;;7377418;19;20416;-78
2022/06/09 08:37:36;;;;;;;1.25;1.20;;;23.80;99.90;;;;;;7377156;19;20753;-79
2022/06/09 08:40:03;;;;;;;1.30;1.20;;;23.90;99.90;;;;;;7378069;19;20396;-79
2022/06/09 08:43:04;;;;;;;1.57;1.47;;;23.80;99.90;;;;;;7385078;19;20349;-79
2022/06/09 08:45:37;;;;;;;1.60;1.50;;;23.60;99.90;;;;;;7285722;19;2004357;-79
2022/06/09 08:48:05;;;;;;;1.38;1.27;;;23.40;99.90;;;;;;7395921;19;20325;-79
2022/06/09 08:50:35;;;;;;;1.50;1.40;;;23.30;99.90;;;;;;7397258;19;20304;-78
2022/06/09 08:53:04;;;;;;;1.20;1.20;;;23.30;99.90;;;;;;7397043;19;20337;-79
2022/06/09 08:55:38;;;;;;;1.70;1.60;;;23.40;99.90;;;;;;7393664;19;20289;-78
2022/06/09 08:58:13;;;;;;;1.40;1.30;;;23.50;99.90;;;;;;7394502;19;20308;-79
2022/06/09 09:00:44;;;;;;;1.50;1.40;;;23.60;99.90;;;;;;7287628;19;2004373;-78
2022/06/09 09:03:23;;;;;;;1.75;1.60;;;23.70;99.90;;;;;;7393471;19;20321;-79
2022/06/09 09:06:07;;;;;;;2.40;1.50;;;23.50;99.90;;;;;;7389228;19;20295;-78
2022/06/09 09:08:33;;;;;;;1.73;1.40;;;23.70;99.90;;;;;;7290268;19;2004615;-79
2022/06/09 09:11:10;;;;;;;1.40;1.30;;;23.50;99.90;;;;;;7389668;19;20337;-78
2022/06/09 09:13:59;;;;;;;1.67;1.50;;;23.50;99.90;;;;;;7391367;19;20342;-78
2022/06/09 09:16:36;;;;;;;2.10;1.65;;;23.30;99.90;;;;;;7289468;19;2004674;-78
2022/06/09 09:19:28;;;;;;;1.30;1.20;;;23.30;99.90;;;;;;7289685;19;2004561;-78
2022/06/09 09:22:23;;;;;;;1.40;1.30;;;23.20;99.90;;;;;;7289362;19;2004359;-78
2022/06/09 09:25:26;;;;;;;1.17;1.13;;;23.30;99.90;;;;;;7286874;19;2004434;-78
2022/06/09 09:28:05;;;;;;;1.55;1.30;;;23.00;99.90;;;;;;7283956;19;2004538;-79
2022/06/09 09:30:48;;;;;;;1.90;1.20;;;23.00;99.90;;;;;;7390195;19;20994;-79
2022/06/09 09:33:17;;;;;;;1.20;1.20;;;22.60;99.90;;;;;;7289756;19;2004518;-78
2022/06/09 09:35:42;;;;;;;1.20;1.20;;;22.60;99.90;;;;;;7389718;19;20345;-79
2022/06/09 09:38:09;;;;;;;1.10;1.10;;;22.70;99.90;;;;;;7392380;19;20311;-79
2022/06/09 09:40:43;;;;;;;1.50;1.30;;;22.70;99.90;;;;;;7390145;19;20323;-78
2022/06/09 09:43:15;;;;;;;2.50;1.25;;;22.70;99.90;;;;;;7289985;19;2004511;-79
2022/06/09 09:45:44;;;;;;;1.37;1.20;;;22.70;99.90;;;;;;7391265;19;20336;-78
2022/06/09 09:48:16;;;;;;;1.33;1.23;;;22.30;99.90;;;;;;7392027;19;20342;-79
2022/06/09 09:50:51;;;;;;;2.58;1.20;;;22.20;99.90;;;;;;7390400;19;20305;-79
2022/06/09 09:53:20;;;;;;;1.20;1.05;;;22.30;99.90;;;;;;7387454;19;20412;-79
2022/06/09 09:55:57;;;;;;;1.30;1.20;;;22.50;99.90;;;;;;7384704;19;20365;-78
2022/06/09 09:58:27;;;;;;;1.10;1.10;;;22.50;99.90;;;;;;7283848;19;2004518;-79
2022/06/09 10:01:02;;;;;;;1.50;1.27;;;22.50;99.90;;;;;;7384026;19;20676;-78
2022/06/09 10:09:39;;;;;;;1.30;1.20;;;22.20;99.90;;;;;;7280641;19;2004342;-79
2022/06/09 10:12:23;;;;;;;1.23;1.13;;;22.20;99.90;;;;;;7381471;19;20301;-78
2022/06/09 10:15:04;;;;;;;1.40;1.30;;;22.40;99.90;;;;;;7280866;19;2004566;-79
2022/06/09 10:17:35;;;;;;;1.13;1.13;;;22.40;99.90;;;;;;7382275;19;20853;-78
2022/06/09 10:20:17;;;;;;;1.20;1.10;;;22.30;99.90;;;;;;7380950;19;20312;-77
2022/06/09 10:22:53;;;;;;;1.20;1.10;;;22.60;99.90;;;;;;7381120;19;20340;-79
2022/06/09 10:25:26;;;;;;;2.83;1.20;;;22.60;99.90;;;;;;7381316;19;20316;-78
2022/06/09 10:27:55;;;;;;;1.10;1.10;;;22.10;99.90;;;;;;7390875;19;20340;-79
2022/06/09 10:30:27;;;;;;;0.90;0.90;;;22.20;99.90;;;;;;7386600;19;20309;-78
2022/06/09 10:32:56;;;;;;;1.40;1.08;;;21.80;99.90;;;;;;7381773;19;20369;-77
2022/06/09 10:35:40;;;;;;;1.60;1.20;;;22.00;99.90;;;;;;7381584;19;20317;-79
2022/06/09 10:38:46;;;;;;;1.30;1.20;;;22.00;99.90;;;;;;7383822;19;20309;-78
2022/06/09 10:41:21;;;;;;;1.35;1.23;;;22.10;99.90;;;;;;7272079;19;2004549;-76
2022/06/09 10:43:51;;;;;;;2.30;1.27;;;22.10;99.90;;;;;;7375397;19;20375;-77
2022/06/09 10:46:35;;;;;;;1.88;1.20;;;22.10;99.90;;;;;;7376423;19;20313;-77
2022/06/09 10:55:14;;;;;;;1.40;1.30;;;22.10;99.90;;;;;;7277586;19;2004470;-77
2022/06/09 10:57:57;;;;;;;1.48;1.38;;;22.50;99.90;;;;;;7377803;19;20312;-77
2022/06/09 11:00:31;;;;;;;1.55;1.40;;;22.20;99.90;;;;;;7276086;19;2004327;-77
2022/06/09 11:02:59;;;;;;;1.50;1.40;;;22.60;99.90;;;;;;7276480;19;2004651;-77
2022/06/09 11:05:33;;;;;;;1.23;1.17;;;23.10;99.90;;;;;;7375071;19;20337;-77
2022/06/09 11:07:59;;;;;;;1.30;1.20;;;23.40;99.90;;;;;;7379212;19;20336;-77
2022/06/09 11:10:36;;;;;;;1.30;1.20;;;23.10;99.90;;;;;;7375604;19;20336;-78
2022/06/09 11:13:11;;;;;;;1.23;1.20;;;23.40;99.90;;;;;;7378838;19;20900;-77
2022/06/09 11:16:09;;;;;;;1.38;1.25;;;23.30;99.90;;;;;;7273776;19;2004318;-77
2022/06/09 11:19:07;;;;;;;1.70;1.40;;;22.90;99.90;;;;;;7277477;19;2004168;-77
2022/06/09 11:21:51;;;;;;;1.52;1.42;;;22.70;99.90;;;;;;7271570;19;2006182;-79
2022/06/09 11:24:29;;;;;;;1.48;1.38;;;22.40;99.90;;;;;;7378696;19;20349;-77
2022/06/09 11:27:00;;;;;;;1.70;1.40;;;21.60;99.90;;;;;;7375407;19;20901;-77
2022/06/09 11:29:54;;;;;;;1.40;1.20;;;21.80;99.90;;;;;;7380389;19;20727;-78
2022/06/09 11:32:52;;;;;;;2.47;1.40;;;22.30;99.90;;;;;;7379030;19;20671;-79
2022/06/09 11:35:45;;;;;;;1.38;1.27;;;22.30;99.90;;;;;;7278857;19;2004530;-79
2022/06/09 11:38:35;;;;;;;5.18;1.25;;;22.80;99.90;;;;;;7281696;19;2004448;-78
2022/06/09 11:41:08;;;;;;;1.80;1.30;;;23.30;99.90;;;;;;7278879;19;2004683;-77
2022/06/09 11:44:24;;;;;;;2.60;1.50;;;23.50;99.90;;;;;;7380212;19;20316;-78
2022/06/09 11:46:51;;;;;;;2.00;1.60;;;23.70;99.90;;;;;;7276019;19;2004416;-79
2022/06/09 11:49:36;;;;;;;1.77;1.53;;;23.20;99.90;;;;;;7380113;19;20343;-79
2022/06/09 11:52:07;;;;;;;2.90;1.50;;;23.10;99.90;;;;;;7380634;19;20336;-78
2022/06/09 11:54:38;;;;;;;2.00;1.20;;;23.00;99.90;;;;;;7384300;19;20415;-79
2022/06/09 11:57:16;;;;;;;1.50;1.30;;;22.60;99.90;;;;;;7381472;19;20305;-78
2022/06/09 11:59:50;;;;;;;1.50;1.40;;;22.30;99.90;;;;;;7285223;19;2004482;-79
2022/06/09 12:02:48;;;;;;;1.33;1.23;;;22.20;99.90;;;;;;7279355;19;2004606;-78
2022/06/09 12:05:34;;;;;;;1.80;1.50;;;21.50;99.90;;;;;;7284598;19;2004565;-78
2022/06/09 12:08:07;;;;;;;1.40;1.30;;;22.10;99.90;;;;;;7381455;19;20368;-78
2022/06/09 12:11:04;;;;;;;1.50;1.40;;;22.10;99.90;;;;;;7379113;19;20313;-78
2022/06/09 12:13:59;;;;;;;1.58;1.48;;;22.30;99.90;;;;;;7274246;19;2004467;-78
2022/06/09 12:16:30;;;;;;;1.65;1.55;;;22.60;99.90;;;;;;7378965;19;20308;-79
2022/06/09 12:19:22;;;;;;;1.52;1.42;;;21.70;99.90;;;;;;7379736;19;20341;-78
2022/06/09 12:21:53;;;;;;;2.17;1.50;;;21.90;99.90;;;;;;7278695;19;2006058;-78
2022/06/09 12:24:33;;;;;;;1.73;1.63;;;22.20;99.90;;;;;;7277278;19;2004945;-78
2022/06/09 12:27:37;;;;;;;1.50;1.40;;;22.10;99.90;;;;;;7277664;19;2004388;-79
2022/06/09 12:30:03;;;;;;;1.50;1.40;;;22.40;99.90;;;;;;7278099;19;2004420;-78
2022/06/09 12:33:16;;;;;;;1.80;1.53;;;22.50;99.90;;;;;;7380918;19;20309;-77
2022/06/09 12:36:08;;;;;;;2.88;1.30;;;22.50;99.90;;;;;;7277614;19;2004412;-78
2022/06/09 12:38:51;;;;;;;1.58;1.48;;;22.60;99.90;;;;;;7272574;19;2004379;-78
2022/06/09 12:41:31;;;;;;;2.03;1.60;;;22.50;99.90;;;;;;7273869;19;2004618;-79
2022/06/09 12:44:00;;;;;;;1.48;1.38;;;22.60;99.90;;;;;;7378966;19;20333;-78
2022/06/09 12:46:28;;;;;;;1.60;1.50;;;22.50;99.90;;;;;;7373554;19;20300;-78
2022/06/09 12:48:54;;;;;;;1.70;1.52;;;21.30;99.90;;;;;;7372679;19;20389;-78
2022/06/09 12:51:25;;;;;;;1.50;1.40;;;21.20;99.90;;;;;;7370654;19;20348;-78
2022/06/09 12:53:56;;;;;;;1.83;1.60;;;21.50;99.90;;;;;;7376084;19;20382;-77
2022/06/09 12:56:42;;;;;;;1.70;1.40;;;21.60;99.90;;;;;;7269807;19;2004365;-77
2022/06/09 12:59:38;;;;;;;2.40;1.70;;;21.60;99.90;;;;;;7271537;19;2004575;-77
2022/06/09 13:02:26;;;;;;;1.90;1.65;;;21.50;99.90;;;;;;7371139;19;20312;-77
2022/06/09 13:05:01;;;;;;;2.03;1.58;;;21.30;99.90;;;;;;7272755;19;2004224;-77
2022/06/09 13:07:29;;;;;;;1.52;1.42;;;21.40;99.90;;;;;;7372126;19;20333;-77
2022/06/09 13:10:05;;;;;;;1.60;1.48;;;21.20;99.90;;;;;;7375058;19;20348;-77
2022/06/09 13:15:23;;;;;;;2.00;1.40;;;21.10;99.90;;;;;;7375296;19;20807;-78
2022/06/09 13:17:49;;;;;;;2.20;1.50;;;21.00;99.90;;;;;;7374359;19;20309;-78
2022/06/09 13:20:17;;;;;;;1.70;1.50;;;21.20;99.90;;;;;;7374136;19;20345;-78
2022/06/09 13:22:43;;;;;;;1.70;1.50;;;20.90;99.90;;;;;;7374354;19;20709;-77
2022/06/09 13:25:18;;;;;;;1.40;1.30;;;21.00;99.90;;;;;;7374658;19;20334;-78